Time;durP1;ratioP1;P1;durP2;ratioP2;P2;SDS_P1;SDS_P2;PMS_P1;PMS_P2;Temp;Humidity;BMP_temperature;BMP_pressure;BME280_temperature;BME280_humidity;BME280_pressure;Samples;Min_cycle;Max_cycle;Signal;HPM_P1;HPM_P2
2021/08/15 00:00:42;;;;;;;26.38;19.88;;;;;;;;;;1083103;54;20038;-62
2021/08/15 00:01:43;;;;;;;29.23;21.27;;;;;;;;;;1083948;31;20446;-62
2021/08/15 00:02:47;;;;;;;26.45;19.90;;;;;;;;;;1083175;54;20033;-62
2021/08/15 00:03:51;;;;;;;28.70;20.75;;;;;;;;;;1083594;39;20531;-62
2021/08/15 00:04:54;;;;;;;28.17;20.85;;;;;;;;;;1083148;54;20026;-62
2021/08/15 00:05:58;;;;;;;22.92;20.08;;;;;;;;;;1083202;54;20057;-62
2021/08/15 00:06:59;;;;;;;24.33;19.17;;;;;;;;;;1083136;54;20073;-62
2021/08/15 00:08:02;;;;;;;25.98;20.75;;;;;;;;;;1083144;54;20030;-62
2021/08/15 00:09:04;;;;;;;27.02;20.17;;;;;;;;;;1083163;54;20042;-62
2021/08/15 00:10:09;;;;;;;27.05;21.42;;;;;;;;;;1083190;54;20031;-62
2021/08/15 00:11:10;;;;;;;25.70;20.33;;;;;;;;;;1083176;54;20053;-62
2021/08/15 00:12:14;;;;;;;25.08;20.25;;;;;;;;;;1083171;54;20037;-62
2021/08/15 00:13:18;;;;;;;27.40;20.90;;;;;;;;;;1083162;54;20057;-62
2021/08/15 00:14:19;;;;;;;25.45;20.55;;;;;;;;;;1083176;54;20034;-62
2021/08/15 00:15:22;;;;;;;27.35;19.95;;;;;;;;;;1083131;54;20030;-62
2021/08/15 00:16:23;;;;;;;25.63;19.40;;;;;;;;;;1083222;47;20037;-62
2021/08/15 00:17:27;;;;;;;26.42;20.42;;;;;;;;;;1083182;54;20027;-62
2021/08/15 00:18:31;;;;;;;24.52;20.15;;;;;;;;;;1083108;54;20049;-62
2021/08/15 00:19:34;;;;;;;25.98;20.25;;;;;;;;;;1083158;54;20029;-62
2021/08/15 00:20:38;;;;;;;24.25;20.27;;;;;;;;;;1083100;54;20037;-63
2021/08/15 00:21:39;;;;;;;25.40;19.77;;;;;;;;;;1083142;54;20027;-62
2021/08/15 00:22:43;;;;;;;23.35;19.85;;;;;;;;;;1083209;54;20031;-62
2021/08/15 00:23:44;;;;;;;26.65;20.17;;;;;;;;;;1083194;54;20532;-62
2021/08/15 00:24:48;;;;;;;24.77;19.70;;;;;;;;;;1083108;54;20026;-62
2021/08/15 00:25:49;;;;;;;24.23;19.70;;;;;;;;;;1083117;47;20118;-62
2021/08/15 00:26:53;;;;;;;24.10;20.08;;;;;;;;;;1083089;54;20030;-62
2021/08/15 00:27:56;;;;;;;26.95;20.80;;;;;;;;;;1083099;46;20560;-62
2021/08/15 00:28:58;;;;;;;28.85;20.98;;;;;;;;;;1083577;39;20428;-62
2021/08/15 00:30:02;;;;;;;27.27;20.95;;;;;;;;;;1083101;54;20591;-62
2021/08/15 00:31:03;;;;;;;27.73;20.33;;;;;;;;;;1083161;54;20027;-62
2021/08/15 00:32:08;;;;;;;27.02;19.55;;;;;;;;;;1083120;54;20032;-62
2021/08/15 00:33:09;;;;;;;24.88;19.42;;;;;;;;;;1083130;54;20050;-62
2021/08/15 00:34:13;;;;;;;27.38;19.48;;;;;;;;;;1083505;39;20129;-62
2021/08/15 00:35:19;;;;;;;29.58;21.10;;;;;;;;;;1083074;54;20050;-62
2021/08/15 00:36:20;;;;;;;26.15;19.13;;;;;;;;;;1083145;54;20053;-62
2021/08/15 00:37:37;;;;;;;27.98;19.75;;;;;;;;;;1083107;54;20121;-61
2021/08/15 00:38:44;;;;;;;28.33;20.95;;;;;;;;;;1083172;54;20049;-63
2021/08/15 00:39:48;;;;;;;24.90;20.13;;;;;;;;;;1083303;54;20160;-62
2021/08/15 00:40:49;;;;;;;23.70;19.98;;;;;;;;;;1083341;54;20081;-62
2021/08/15 00:41:53;;;;;;;26.40;19.83;;;;;;;;;;1083316;54;20073;-62
2021/08/15 00:42:56;;;;;;;24.30;19.25;;;;;;;;;;1083273;54;20050;-62
2021/08/15 00:43:59;;;;;;;23.30;19.40;;;;;;;;;;1083294;54;20536;-62
2021/08/15 00:45:02;;;;;;;24.88;20.10;;;;;;;;;;1083302;54;20034;-62
2021/08/15 00:46:07;;;;;;;26.33;20.25;;;;;;;;;;1083686;39;20420;-62
2021/08/15 00:47:11;;;;;;;24.38;19.27;;;;;;;;;;1083228;54;20030;-62
2021/08/15 00:48:12;;;;;;;23.48;19.33;;;;;;;;;;1083211;54;20121;-61
2021/08/15 00:49:15;;;;;;;23.67;19.55;;;;;;;;;;1083199;54;20030;-61
2021/08/15 00:50:22;;;;;;;28.17;20.58;;;;;;;;;;1083291;54;20034;-62
2021/08/15 00:51:23;;;;;;;28.25;20.27;;;;;;;;;;1083228;54;20121;-62
2021/08/15 00:52:27;;;;;;;22.95;18.77;;;;;;;;;;1083245;54;20027;-62
2021/08/15 00:53:28;;;;;;;26.58;20.10;;;;;;;;;;1083195;54;20548;-62
2021/08/15 00:54:31;;;;;;;23.10;19.60;;;;;;;;;;1083662;39;20441;-61
2021/08/15 00:55:33;;;;;;;27.08;19.23;;;;;;;;;;1082944;54;20087;-62
2021/08/15 00:56:36;;;;;;;24.20;20.65;;;;;;;;;;1082943;54;20023;-62
2021/08/15 00:57:41;;;;;;;25.75;20.10;;;;;;;;;;1083184;54;20027;-62
2021/08/15 00:58:45;;;;;;;30.35;21.13;;;;;;;;;;1083199;54;20090;-62
2021/08/15 00:59:48;;;;;;;25.77;21.02;;;;;;;;;;1083274;54;20114;-62
2021/08/15 01:00:52;;;;;;;27.48;22.10;;;;;;;;;;1083418;54;20026;-62
2021/08/15 01:01:54;;;;;;;28.10;21.00;;;;;;;;;;1083247;54;20635;-62
2021/08/15 01:02:59;;;;;;;24.90;19.92;;;;;;;;;;1083186;54;20037;-61
2021/08/15 01:04:03;;;;;;;22.65;19.15;;;;;;;;;;1083734;39;20464;-62
2021/08/15 01:05:08;;;;;;;25.05;21.10;;;;;;;;;;1083871;39;20646;-62
2021/08/15 01:06:15;;;;;;;27.35;20.98;;;;;;;;;;1083473;54;20117;-62
2021/08/15 01:07:17;;;;;;;24.75;20.00;;;;;;;;;;1083914;39;20439;-62
2021/08/15 01:08:20;;;;;;;29.13;20.88;;;;;;;;;;1083418;54;20154;-62
2021/08/15 01:09:22;;;;;;;26.85;20.42;;;;;;;;;;1083408;54;20043;-62
2021/08/15 01:10:25;;;;;;;25.60;21.05;;;;;;;;;;1083446;54;20030;-62
2021/08/15 01:11:27;;;;;;;26.50;21.35;;;;;;;;;;1083405;54;20114;-62
2021/08/15 01:12:31;;;;;;;28.23;21.10;;;;;;;;;;1083880;39;20448;-62
2021/08/15 01:13:33;;;;;;;24.45;21.05;;;;;;;;;;1083402;54;20121;-62
2021/08/15 01:14:36;;;;;;;26.33;21.48;;;;;;;;;;1083389;54;20043;-62
2021/08/15 01:15:37;;;;;;;26.65;21.05;;;;;;;;;;1083426;54;20022;-63
2021/08/15 01:16:42;;;;;;;29.00;20.80;;;;;;;;;;1083431;54;20030;-62
2021/08/15 01:17:43;;;;;;;28.52;21.15;;;;;;;;;;1083385;54;20050;-61
2021/08/15 01:18:47;;;;;;;26.55;21.27;;;;;;;;;;1083491;54;20048;-62
2021/08/15 01:19:51;;;;;;;23.48;19.15;;;;;;;;;;1083428;54;20174;-62
2021/08/15 01:20:59;;;;;;;26.55;20.15;;;;;;;;;;1083392;54;20038;-62
2021/08/15 01:22:03;;;;;;;24.17;19.75;;;;;;;;;;1083335;54;20536;-62
2021/08/15 01:23:07;;;;;;;23.17;19.60;;;;;;;;;;1083393;54;20271;-62
2021/08/15 01:24:11;;;;;;;25.38;20.63;;;;;;;;;;1083402;54;20113;-62
2021/08/15 01:25:16;;;;;;;27.73;20.42;;;;;;;;;;1083358;54;20026;-62
2021/08/15 01:26:18;;;;;;;28.23;20.33;;;;;;;;;;1083381;54;20117;-62
2021/08/15 01:27:23;;;;;;;24.58;19.35;;;;;;;;;;1083406;54;20038;-62
2021/08/15 01:28:27;;;;;;;24.90;19.63;;;;;;;;;;1083346;54;20057;-62
2021/08/15 01:29:32;;;;;;;24.63;20.05;;;;;;;;;;1083406;54;20050;-62
2021/08/15 01:30:33;;;;;;;29.77;20.05;;;;;;;;;;1083353;54;20038;-62
2021/08/15 01:31:36;;;;;;;26.60;20.67;;;;;;;;;;1083438;54;20544;-62
2021/08/15 01:32:38;;;;;;;23.05;19.98;;;;;;;;;;1083855;39;20408;-62
2021/08/15 01:33:42;;;;;;;27.98;20.20;;;;;;;;;;1083465;54;20030;-62
2021/08/15 01:34:43;;;;;;;25.98;20.13;;;;;;;;;;1083167;46;20030;-62
2021/08/15 01:35:50;;;;;;;26.63;20.08;;;;;;;;;;1083100;54;20563;-62
2021/08/15 01:36:54;;;;;;;27.33;20.38;;;;;;;;;;1083872;39;20396;-62
2021/08/15 01:37:55;;;;;;;24.75;20.83;;;;;;;;;;1083399;54;20030;-62
2021/08/15 01:38:58;;;;;;;28.63;19.77;;;;;;;;;;1083414;54;20564;-62
2021/08/15 01:40:02;;;;;;;24.50;20.02;;;;;;;;;;1084138;31;20504;-62
2021/08/15 01:41:06;;;;;;;27.00;20.77;;;;;;;;;;1083425;54;20045;-62
2021/08/15 01:42:10;;;;;;;25.13;19.80;;;;;;;;;;1083343;54;20035;-62
2021/08/15 01:43:11;;;;;;;25.67;20.15;;;;;;;;;;1084142;31;20497;-62
2021/08/15 01:44:17;;;;;;;24.00;19.65;;;;;;;;;;1083374;54;20081;-62
2021/08/15 01:45:18;;;;;;;24.08;19.60;;;;;;;;;;1083407;54;20030;-62
2021/08/15 01:46:23;;;;;;;24.23;18.77;;;;;;;;;;1083355;54;20026;-62
2021/08/15 01:47:24;;;;;;;25.00;19.35;;;;;;;;;;1083340;54;20038;-62
2021/08/15 01:48:27;;;;;;;26.85;19.88;;;;;;;;;;1083341;54;20031;-62
2021/08/15 01:49:28;;;;;;;27.58;19.48;;;;;;;;;;1083291;54;20138;-62
2021/08/15 01:50:32;;;;;;;22.20;18.65;;;;;;;;;;1083858;39;20440;-62
2021/08/15 01:51:33;;;;;;;23.02;19.23;;;;;;;;;;1083343;54;20023;-61
2021/08/15 01:52:36;;;;;;;26.95;19.15;;;;;;;;;;1083361;54;20034;-62
2021/08/15 01:53:38;;;;;;;26.10;18.85;;;;;;;;;;1083341;54;20042;-62
2021/08/15 01:54:42;;;;;;;26.75;19.85;;;;;;;;;;1083349;54;20077;-62
2021/08/15 01:55:43;;;;;;;22.10;18.33;;;;;;;;;;1083834;31;20524;-62
2021/08/15 01:56:47;;;;;;;21.40;18.63;;;;;;;;;;1083084;54;20037;-62
2021/08/15 01:57:48;;;;;;;28.23;19.52;;;;;;;;;;1083737;39;20455;-62
2021/08/15 01:58:52;;;;;;;24.45;18.92;;;;;;;;;;1083334;54;20031;-62
2021/08/15 01:59:55;;;;;;;23.65;19.75;;;;;;;;;;1083328;54;20134;-62
2021/08/15 02:00:59;;;;;;;26.83;19.40;;;;;;;;;;1083312;54;20036;-62
2021/08/15 02:02:00;;;;;;;25.20;19.75;;;;;;;;;;1083316;54;20053;-62
2021/08/15 02:03:04;;;;;;;24.35;18.73;;;;;;;;;;1083305;54;20031;-62
2021/08/15 02:04:05;;;;;;;24.23;18.90;;;;;;;;;;1083347;54;20121;-62
2021/08/15 02:05:10;;;;;;;24.15;19.52;;;;;;;;;;1083321;54;20030;-62
2021/08/15 02:06:14;;;;;;;24.40;19.45;;;;;;;;;;1083317;54;20042;-62
2021/08/15 02:07:15;;;;;;;24.45;19.38;;;;;;;;;;1083329;54;20057;-62
2021/08/15 02:08:19;;;;;;;24.50;19.35;;;;;;;;;;1083283;54;20086;-61
2021/08/15 02:09:20;;;;;;;25.08;18.98;;;;;;;;;;1083319;54;20552;-62
2021/08/15 02:10:25;;;;;;;25.75;20.33;;;;;;;;;;1083338;54;20030;-62
2021/08/15 02:11:26;;;;;;;24.85;18.83;;;;;;;;;;1083346;54;20027;-62
2021/08/15 02:12:29;;;;;;;25.52;18.83;;;;;;;;;;1083390;54;20034;-62
2021/08/15 02:13:30;;;;;;;26.42;19.63;;;;;;;;;;1083339;54;20034;-62
2021/08/15 02:14:34;;;;;;;23.85;19.75;;;;;;;;;;1083228;54;20027;-62
2021/08/15 02:15:38;;;;;;;24.77;19.25;;;;;;;;;;1083388;54;20532;-62
2021/08/15 02:16:41;;;;;;;25.92;19.83;;;;;;;;;;1083351;54;20031;-62
2021/08/15 02:17:42;;;;;;;24.10;19.00;;;;;;;;;;1083691;39;20458;-62
2021/08/15 02:18:46;;;;;;;23.85;18.60;;;;;;;;;;1083302;54;20059;-62
2021/08/15 02:19:47;;;;;;;25.58;18.23;;;;;;;;;;1083345;54;20108;-62
2021/08/15 02:20:50;;;;;;;27.35;19.75;;;;;;;;;;1083352;54;20572;-62
2021/08/15 02:21:51;;;;;;;23.20;19.90;;;;;;;;;;1083278;54;20122;-62
2021/08/15 02:22:55;;;;;;;22.05;18.83;;;;;;;;;;1083381;54;20042;-62
2021/08/15 02:23:56;;;;;;;25.48;19.17;;;;;;;;;;1083282;54;20022;-62
2021/08/15 02:25:00;;;;;;;23.95;18.77;;;;;;;;;;1083286;54;20037;-62
2021/08/15 02:26:01;;;;;;;20.40;17.70;;;;;;;;;;1083301;54;20049;-62
2021/08/15 02:27:05;;;;;;;24.58;18.92;;;;;;;;;;1083763;39;20433;-62
2021/08/15 02:28:09;;;;;;;22.73;19.00;;;;;;;;;;1083295;54;20026;-61
2021/08/15 02:29:10;;;;;;;25.10;19.05;;;;;;;;;;1083298;54;20038;-62
2021/08/15 02:30:16;;;;;;;22.23;18.55;;;;;;;;;;1083287;54;20030;-62
2021/08/15 02:31:20;;;;;;;25.20;19.08;;;;;;;;;;1083763;39;20425;-62
2021/08/15 02:32:23;;;;;;;25.75;18.92;;;;;;;;;;1083320;54;20034;-62
2021/08/15 02:33:27;;;;;;;27.90;20.27;;;;;;;;;;1083273;54;20038;-62
2021/08/15 02:34:28;;;;;;;27.10;19.92;;;;;;;;;;1083720;39;20440;-62
2021/08/15 02:35:33;;;;;;;26.50;19.50;;;;;;;;;;1083335;54;20030;-62
2021/08/15 02:36:34;;;;;;;24.77;19.27;;;;;;;;;;1083410;54;20110;-62
2021/08/15 02:37:38;;;;;;;24.23;19.80;;;;;;;;;;1083243;54;20030;-61
2021/08/15 02:38:42;;;;;;;23.63;18.48;;;;;;;;;;1083333;54;20045;-62
2021/08/15 02:39:43;;;;;;;22.85;18.55;;;;;;;;;;1083321;54;20030;-62
2021/08/15 02:40:46;;;;;;;24.02;18.77;;;;;;;;;;1083289;54;20030;-62
2021/08/15 02:41:48;;;;;;;24.55;19.65;;;;;;;;;;1082942;54;20030;-62
2021/08/15 02:42:54;;;;;;;25.38;19.15;;;;;;;;;;1083049;54;20556;-62
2021/08/15 02:43:55;;;;;;;21.48;18.00;;;;;;;;;;1083331;54;20053;-62
2021/08/15 02:45:00;;;;;;;23.20;19.30;;;;;;;;;;1083313;54;20038;-62
2021/08/15 02:46:04;;;;;;;24.40;19.15;;;;;;;;;;1083304;54;20031;-62
2021/08/15 02:47:07;;;;;;;24.20;18.80;;;;;;;;;;1083338;54;20034;-62
2021/08/15 02:48:11;;;;;;;24.42;19.83;;;;;;;;;;1083290;54;20537;-62
2021/08/15 02:49:12;;;;;;;25.25;20.45;;;;;;;;;;1083276;54;20057;-62
2021/08/15 02:50:19;;;;;;;26.02;20.27;;;;;;;;;;1083296;54;20058;-62
2021/08/15 02:51:20;;;;;;;29.08;19.15;;;;;;;;;;1083275;54;20023;-62
2021/08/15 02:52:23;;;;;;;23.30;18.05;;;;;;;;;;1083260;54;20027;-62
2021/08/15 02:53:27;;;;;;;24.85;18.67;;;;;;;;;;1084067;31;20497;-62
2021/08/15 02:54:28;;;;;;;25.95;19.13;;;;;;;;;;1083347;54;20026;-62
2021/08/15 02:55:31;;;;;;;24.88;19.52;;;;;;;;;;1083285;54;20026;-62
2021/08/15 02:56:32;;;;;;;24.08;19.08;;;;;;;;;;1083261;54;20073;-62
2021/08/15 02:57:36;;;;;;;23.27;18.27;;;;;;;;;;1083294;54;20027;-62
2021/08/15 02:58:39;;;;;;;23.95;18.88;;;;;;;;;;1083266;54;20038;-62
2021/08/15 02:59:40;;;;;;;25.83;20.08;;;;;;;;;;1083313;54;20023;-62
2021/08/15 03:00:44;;;;;;;24.02;18.65;;;;;;;;;;1083233;54;20031;-61
2021/08/15 03:01:45;;;;;;;24.45;18.33;;;;;;;;;;1083271;54;20575;-61
2021/08/15 03:02:51;;;;;;;23.02;18.40;;;;;;;;;;1083246;54;20033;-62
2021/08/15 03:03:52;;;;;;;23.13;18.48;;;;;;;;;;1083278;54;20053;-62
2021/08/15 03:04:56;;;;;;;23.77;18.75;;;;;;;;;;1083256;54;20038;-62
2021/08/15 03:06:00;;;;;;;23.65;18.90;;;;;;;;;;1083284;54;20343;-62
2021/08/15 03:07:01;;;;;;;25.80;18.95;;;;;;;;;;1083275;54;20644;-62
2021/08/15 03:08:05;;;;;;;25.42;19.48;;;;;;;;;;1083680;39;20440;-61
2021/08/15 03:09:06;;;;;;;23.00;18.80;;;;;;;;;;1083265;54;20027;-62
2021/08/15 03:10:12;;;;;;;25.38;18.55;;;;;;;;;;1083283;54;20038;-62
2021/08/15 03:11:13;;;;;;;24.33;19.08;;;;;;;;;;1083277;54;20031;-62
2021/08/15 03:12:16;;;;;;;21.75;17.42;;;;;;;;;;1083270;54;20026;-62
2021/08/15 03:13:20;;;;;;;23.20;18.20;;;;;;;;;;1082989;54;20572;-62
2021/08/15 03:14:21;;;;;;;22.00;16.80;;;;;;;;;;1082978;54;20057;-62
2021/08/15 03:15:24;;;;;;;22.70;17.15;;;;;;;;;;1083249;54;20030;-62
2021/08/15 03:16:25;;;;;;;20.10;17.33;;;;;;;;;;1083689;39;20528;-61
2021/08/15 03:17:29;;;;;;;24.13;17.50;;;;;;;;;;1083223;54;20564;-61
2021/08/15 03:18:33;;;;;;;23.02;17.30;;;;;;;;;;1083248;54;20536;-61
2021/08/15 03:19:37;;;;;;;22.77;18.67;;;;;;;;;;1083228;54;20556;-62
2021/08/15 03:20:38;;;;;;;25.38;18.17;;;;;;;;;;1083183;54;20544;-63
2021/08/15 03:21:41;;;;;;;23.40;17.27;;;;;;;;;;1083320;54;20031;-62
2021/08/15 03:22:45;;;;;;;21.95;16.95;;;;;;;;;;1083199;54;20117;-62
2021/08/15 03:23:46;;;;;;;19.95;17.65;;;;;;;;;;1083252;54;20026;-62
2021/08/15 03:24:49;;;;;;;22.42;18.13;;;;;;;;;;1083730;39;20440;-61
2021/08/15 03:25:50;;;;;;;20.75;17.05;;;;;;;;;;1083237;54;20037;-62
2021/08/15 03:26:54;;;;;;;21.67;17.00;;;;;;;;;;1083000;54;20030;-62
2021/08/15 03:27:55;;;;;;;22.15;17.02;;;;;;;;;;1083186;47;20030;-62
2021/08/15 03:28:58;;;;;;;24.65;17.08;;;;;;;;;;1083224;54;20026;-62
2021/08/15 03:30:02;;;;;;;24.20;18.02;;;;;;;;;;1083264;54;20026;-62
2021/08/15 03:31:04;;;;;;;22.58;18.05;;;;;;;;;;1083237;54;20022;-61
2021/08/15 03:32:08;;;;;;;20.70;17.20;;;;;;;;;;1083248;54;20122;-62
2021/08/15 03:33:09;;;;;;;20.17;17.10;;;;;;;;;;1083226;54;20030;-62
2021/08/15 03:34:18;;;;;;;21.05;18.20;;;;;;;;;;1083600;39;20119;-62
2021/08/15 03:35:19;;;;;;;24.00;17.88;;;;;;;;;;1083233;54;20035;-62
2021/08/15 03:36:23;;;;;;;22.38;17.65;;;;;;;;;;1083231;54;20033;-62
2021/08/15 03:37:24;;;;;;;23.30;18.58;;;;;;;;;;1083188;54;20049;-62
2021/08/15 03:38:27;;;;;;;22.67;17.65;;;;;;;;;;1083631;39;20457;-61
2021/08/15 03:39:29;;;;;;;22.17;18.08;;;;;;;;;;1083284;54;20131;-62
2021/08/15 03:40:33;;;;;;;22.85;18.02;;;;;;;;;;1083223;54;20027;-62
2021/08/15 03:41:34;;;;;;;23.05;18.02;;;;;;;;;;1083285;54;20061;-62
2021/08/15 03:42:38;;;;;;;24.35;18.20;;;;;;;;;;1083202;54;20038;-62
2021/08/15 03:43:39;;;;;;;23.30;17.65;;;;;;;;;;1083213;54;20536;-62
2021/08/15 03:44:43;;;;;;;22.38;18.38;;;;;;;;;;1083200;54;20030;-62
2021/08/15 03:45:44;;;;;;;24.40;17.40;;;;;;;;;;1083208;54;20117;-61
2021/08/15 03:46:47;;;;;;;25.73;19.08;;;;;;;;;;1082975;54;20034;-62
2021/08/15 03:47:48;;;;;;;23.48;17.50;;;;;;;;;;1082936;54;20097;-62
2021/08/15 03:48:52;;;;;;;21.20;17.50;;;;;;;;;;1083191;54;20032;-62
2021/08/15 03:49:55;;;;;;;22.35;17.95;;;;;;;;;;1083251;54;20027;-62
2021/08/15 03:50:59;;;;;;;25.40;19.83;;;;;;;;;;1083208;54;20037;-62
2021/08/15 03:52:00;;;;;;;27.27;20.08;;;;;;;;;;1083202;54;20026;-62
2021/08/15 03:53:04;;;;;;;22.42;19.27;;;;;;;;;;1083223;54;20038;-62
2021/08/15 03:54:07;;;;;;;24.30;19.90;;;;;;;;;;1083193;54;20026;-62
2021/08/15 03:55:13;;;;;;;24.17;20.50;;;;;;;;;;1083159;54;20130;-61
2021/08/15 03:56:14;;;;;;;25.35;19.75;;;;;;;;;;1083237;54;20051;-62
2021/08/15 03:57:18;;;;;;;24.55;20.77;;;;;;;;;;1083217;54;20130;-62
2021/08/15 03:58:19;;;;;;;25.50;19.92;;;;;;;;;;1083150;54;20559;-62
2021/08/15 03:59:22;;;;;;;22.33;18.80;;;;;;;;;;1083197;54;20026;-62
2021/08/15 04:00:23;;;;;;;23.10;19.77;;;;;;;;;;1083190;54;20110;-62
2021/08/15 04:01:27;;;;;;;26.23;19.67;;;;;;;;;;1083194;54;20030;-62
2021/08/15 04:02:28;;;;;;;23.38;18.23;;;;;;;;;;1083147;54;20039;-62
2021/08/15 04:03:31;;;;;;;26.15;19.27;;;;;;;;;;1083616;39;20441;-62
2021/08/15 04:04:32;;;;;;;25.15;19.55;;;;;;;;;;1083257;54;20113;-62
2021/08/15 04:05:40;;;;;;;24.92;18.33;;;;;;;;;;1083186;54;20023;-62
2021/08/15 04:06:43;;;;;;;23.35;18.00;;;;;;;;;;1083212;54;20117;-62
2021/08/15 04:07:44;;;;;;;22.55;18.45;;;;;;;;;;1083136;54;20114;-62
2021/08/15 04:08:48;;;;;;;21.13;18.13;;;;;;;;;;1083159;54;20030;-63
2021/08/15 04:09:49;;;;;;;23.75;18.63;;;;;;;;;;1083159;54;20142;-62
2021/08/15 04:10:53;;;;;;;24.83;18.45;;;;;;;;;;1083162;54;20057;-62
2021/08/15 04:11:56;;;;;;;23.73;18.83;;;;;;;;;;1083160;54;20117;-62
2021/08/15 04:12:57;;;;;;;24.38;17.85;;;;;;;;;;1083641;39;20548;-62
2021/08/15 04:14:01;;;;;;;23.48;18.52;;;;;;;;;;1083154;54;20038;-62
2021/08/15 04:15:02;;;;;;;25.98;18.42;;;;;;;;;;1083165;54;20050;-63
2021/08/15 04:16:06;;;;;;;26.25;19.08;;;;;;;;;;1083620;39;20425;-62
2021/08/15 04:17:10;;;;;;;26.67;19.35;;;;;;;;;;1082840;47;20027;-62
2021/08/15 04:18:11;;;;;;;24.05;18.30;;;;;;;;;;1082839;54;20114;-62
2021/08/15 04:19:14;;;;;;;28.67;19.67;;;;;;;;;;1083163;54;20584;-62
2021/08/15 04:20:15;;;;;;;24.88;18.77;;;;;;;;;;1083164;54;20026;-62
2021/08/15 04:21:21;;;;;;;22.77;18.50;;;;;;;;;;1083634;39;20445;-62
2021/08/15 04:22:24;;;;;;;25.48;18.00;;;;;;;;;;1083141;54;20023;-62
2021/08/15 04:23:27;;;;;;;23.35;19.15;;;;;;;;;;1083536;39;20440;-62
2021/08/15 04:24:31;;;;;;;23.33;18.13;;;;;;;;;;1083204;54;20041;-62
2021/08/15 04:25:32;;;;;;;22.73;18.63;;;;;;;;;;1083603;39;20505;-62
2021/08/15 04:26:35;;;;;;;23.70;18.73;;;;;;;;;;1083229;54;20038;-62
2021/08/15 04:27:36;;;;;;;26.30;19.67;;;;;;;;;;1083181;54;20034;-62
2021/08/15 04:28:40;;;;;;;27.08;20.70;;;;;;;;;;1083154;54;20027;-62
2021/08/15 04:29:44;;;;;;;26.20;20.90;;;;;;;;;;1083189;54;20031;-62
2021/08/15 04:30:44;;;;;;;24.08;20.00;;;;;;;;;;1083135;54;20113;-63
2021/08/15 04:31:48;;;;;;;29.08;20.83;;;;;;;;;;1083161;54;20548;-62
2021/08/15 04:32:49;;;;;;;26.20;19.55;;;;;;;;;;1083157;54;20030;-62
2021/08/15 04:33:53;;;;;;;22.67;18.98;;;;;;;;;;1083127;54;20033;-62
2021/08/15 04:34:53;;;;;;;23.25;19.50;;;;;;;;;;1083144;54;20551;-62
2021/08/15 04:35:58;;;;;;;23.98;18.58;;;;;;;;;;1083108;54;20022;-62
2021/08/15 04:37:05;;;;;;;23.77;18.95;;;;;;;;;;1083127;54;20053;-62
2021/08/15 04:38:06;;;;;;;22.80;19.20;;;;;;;;;;1083123;54;20529;-62
2021/08/15 04:39:09;;;;;;;27.95;20.52;;;;;;;;;;1083134;54;20033;-62
2021/08/15 04:40:11;;;;;;;28.55;20.60;;;;;;;;;;1083111;54;20114;-62
2021/08/15 04:41:15;;;;;;;23.48;18.45;;;;;;;;;;1083153;54;20064;-62
2021/08/15 04:42:17;;;;;;;28.38;19.98;;;;;;;;;;1083143;54;20142;-62
2021/08/15 04:43:21;;;;;;;23.13;19.85;;;;;;;;;;1083079;54;20027;-62
2021/08/15 04:44:22;;;;;;;23.42;18.75;;;;;;;;;;1083148;54;20022;-62
2021/08/15 04:45:25;;;;;;;27.15;19.15;;;;;;;;;;1083144;54;20031;-62
2021/08/15 04:46:29;;;;;;;24.50;20.40;;;;;;;;;;1083116;54;20026;-62
2021/08/15 04:47:30;;;;;;;23.30;19.13;;;;;;;;;;1083148;54;20063;-62
2021/08/15 04:48:33;;;;;;;27.88;19.80;;;;;;;;;;1082814;47;20023;-62
2021/08/15 04:49:35;;;;;;;24.48;19.65;;;;;;;;;;1082906;54;20084;-62
2021/08/15 04:50:38;;;;;;;28.73;20.08;;;;;;;;;;1083179;54;20042;-62
2021/08/15 04:51:42;;;;;;;25.25;20.10;;;;;;;;;;1083163;54;20512;-63
2021/08/15 04:52:45;;;;;;;27.83;20.85;;;;;;;;;;1083086;54;20026;-62
2021/08/15 04:53:49;;;;;;;28.63;20.33;;;;;;;;;;1083113;54;20030;-62
2021/08/15 04:54:50;;;;;;;26.30;20.23;;;;;;;;;;1083843;31;20558;-62
2021/08/15 04:55:53;;;;;;;23.50;19.08;;;;;;;;;;1083105;54;20045;-62
2021/08/15 04:56:55;;;;;;;25.58;20.45;;;;;;;;;;1083130;54;20118;-62
2021/08/15 04:57:59;;;;;;;25.10;19.23;;;;;;;;;;1083096;54;20073;-62
2021/08/15 04:59:02;;;;;;;25.10;18.70;;;;;;;;;;1083051;54;20026;-62
2021/08/15 05:00:05;;;;;;;29.10;20.25;;;;;;;;;;1083111;54;20138;-62
2021/08/15 05:01:08;;;;;;;28.52;20.52;;;;;;;;;;1083127;54;20027;-63
2021/08/15 05:02:09;;;;;;;24.13;19.73;;;;;;;;;;1083067;54;20038;-63
2021/08/15 05:03:16;;;;;;;28.52;20.83;;;;;;;;;;1083051;54;20061;-63
2021/08/15 05:04:18;;;;;;;23.23;19.13;;;;;;;;;;1083131;54;20027;-63
2021/08/15 05:05:21;;;;;;;27.98;21.30;;;;;;;;;;1083100;54;20077;-63
2021/08/15 05:06:25;;;;;;;26.40;20.50;;;;;;;;;;1083084;54;20050;-63
2021/08/15 05:07:26;;;;;;;22.92;19.75;;;;;;;;;;1083568;39;20101;-62
2021/08/15 05:08:33;;;;;;;25.92;20.02;;;;;;;;;;1083123;54;20030;-62
2021/08/15 05:09:33;;;;;;;23.65;19.13;;;;;;;;;;1083108;54;20065;-62
2021/08/15 05:10:37;;;;;;;22.92;18.45;;;;;;;;;;1083115;54;20031;-63
2021/08/15 05:11:39;;;;;;;21.73;19.02;;;;;;;;;;1083141;54;20061;-62
2021/08/15 05:12:42;;;;;;;26.20;19.65;;;;;;;;;;1083063;54;20030;-62
2021/08/15 05:13:46;;;;;;;22.85;19.25;;;;;;;;;;1083369;54;20026;-63
2021/08/15 05:14:47;;;;;;;26.95;20.23;;;;;;;;;;1083063;47;20022;-62
2021/08/15 05:15:50;;;;;;;26.60;20.85;;;;;;;;;;1083061;54;20555;-62
2021/08/15 05:16:52;;;;;;;28.23;20.35;;;;;;;;;;1083038;54;20026;-63
2021/08/15 05:17:56;;;;;;;24.98;19.25;;;;;;;;;;1082737;47;20046;-62
2021/08/15 05:18:57;;;;;;;26.48;20.58;;;;;;;;;;1082822;54;20083;-62
2021/08/15 05:20:00;;;;;;;25.35;20.17;;;;;;;;;;1083095;54;20031;-62
2021/08/15 05:21:01;;;;;;;22.60;18.20;;;;;;;;;;1083087;54;20034;-63
2021/08/15 05:22:05;;;;;;;25.52;18.88;;;;;;;;;;1083091;54;20026;-63
2021/08/15 05:23:09;;;;;;;24.05;20.27;;;;;;;;;;1083015;54;20027;-62
2021/08/15 05:24:15;;;;;;;24.75;20.40;;;;;;;;;;1083090;54;20635;-62
2021/08/15 05:25:16;;;;;;;24.90;20.42;;;;;;;;;;1083843;31;20444;-63
2021/08/15 05:26:20;;;;;;;27.23;20.83;;;;;;;;;;1083076;54;20037;-62
2021/08/15 05:27:21;;;;;;;24.70;20.30;;;;;;;;;;1083049;54;20038;-63
2021/08/15 05:28:24;;;;;;;27.38;20.55;;;;;;;;;;1082977;54;20030;-62
2021/08/15 05:29:26;;;;;;;28.13;21.65;;;;;;;;;;1083040;54;20118;-62
2021/08/15 05:30:29;;;;;;;25.02;20.10;;;;;;;;;;1083104;54;20031;-62
2021/08/15 05:31:30;;;;;;;26.40;19.75;;;;;;;;;;1083114;54;20117;-63
2021/08/15 05:32:34;;;;;;;26.80;19.80;;;;;;;;;;1083073;54;20026;-63
2021/08/15 05:33:37;;;;;;;24.52;19.55;;;;;;;;;;1083482;39;20437;-63
2021/08/15 05:34:38;;;;;;;27.00;19.38;;;;;;;;;;1083070;54;20030;-62
2021/08/15 05:35:42;;;;;;;25.73;19.75;;;;;;;;;;1083133;54;20026;-62
2021/08/15 05:36:43;;;;;;;25.20;19.15;;;;;;;;;;1083040;54;20049;-62
2021/08/15 05:37:46;;;;;;;27.15;21.00;;;;;;;;;;1083002;54;20038;-62
2021/08/15 05:38:47;;;;;;;24.17;17.98;;;;;;;;;;1083502;39;20495;-63
2021/08/15 05:39:54;;;;;;;24.50;20.13;;;;;;;;;;1083046;54;20545;-63
2021/08/15 05:40:55;;;;;;;23.63;17.73;;;;;;;;;;1083078;54;20054;-63
2021/08/15 05:41:58;;;;;;;23.20;18.30;;;;;;;;;;1083036;54;20031;-63
2021/08/15 05:43:02;;;;;;;28.42;20.63;;;;;;;;;;1083043;54;20122;-62
2021/08/15 05:44:03;;;;;;;29.42;21.63;;;;;;;;;;1083006;54;20114;-63
2021/08/15 05:45:09;;;;;;;29.63;22.27;;;;;;;;;;1083016;54;20034;-63
2021/08/15 05:46:10;;;;;;;28.80;20.63;;;;;;;;;;1083044;54;20073;-63
2021/08/15 05:47:13;;;;;;;25.33;19.33;;;;;;;;;;1083031;54;20030;-63
2021/08/15 05:48:14;;;;;;;30.67;21.30;;;;;;;;;;1082999;54;20034;-63
2021/08/15 05:49:18;;;;;;;29.83;22.42;;;;;;;;;;1083492;39;20436;-63
2021/08/15 05:50:21;;;;;;;25.05;19.02;;;;;;;;;;1083330;54;20169;-62
2021/08/15 05:51:22;;;;;;;27.35;18.25;;;;;;;;;;1083356;54;20134;-63
2021/08/15 05:52:27;;;;;;;30.60;19.95;;;;;;;;;;1083368;54;20030;-63
2021/08/15 05:53:28;;;;;;;35.58;21.48;;;;;;;;;;1083379;54;20046;-63
2021/08/15 05:54:31;;;;;;;26.23;20.23;;;;;;;;;;1083451;54;20146;-63
2021/08/15 05:55:35;;;;;;;31.65;21.33;;;;;;;;;;1083367;54;20057;-63
2021/08/15 05:56:39;;;;;;;28.33;20.13;;;;;;;;;;1083350;54;20060;-63
2021/08/15 05:57:40;;;;;;;30.13;22.67;;;;;;;;;;1083365;54;20049;-62
2021/08/15 05:58:43;;;;;;;27.45;21.17;;;;;;;;;;1083361;54;20567;-63
2021/08/15 05:59:44;;;;;;;32.92;22.35;;;;;;;;;;1083357;54;20018;-63
2021/08/15 06:00:50;;;;;;;30.35;23.17;;;;;;;;;;1083377;54;20138;-63
2021/08/15 06:01:51;;;;;;;32.25;23.13;;;;;;;;;;1083371;54;20053;-63
2021/08/15 06:02:55;;;;;;;32.92;22.13;;;;;;;;;;1083057;47;20027;-63
2021/08/15 06:03:55;;;;;;;39.95;24.17;;;;;;;;;;1083072;54;20045;-63
2021/08/15 06:04:59;;;;;;;34.05;23.27;;;;;;;;;;1083342;47;20548;-63
2021/08/15 06:06:00;;;;;;;31.73;24.17;;;;;;;;;;1083340;54;20571;-63